Main page
METAR-TAF:

METAR-TAF

Airports :

Salon-de-Provence Air Base

Salon-de-Provence, France

latitude: 43-36N, longitude: 005-06E, elevation: 59 m

Current weather observation

The report was made 37 minutes ago, at 13:00 UTC
Wind 6 kt from the West, varying between Southwest and North
Temperature 27°C
Humidity 32%
Pressure 1022 hPa
Visibility 10 km or more

METAR: LFMY 281300Z AUTO 28006KT 220V360 9999 // NSC 27/09 Q1022

Time: 15:37 (13:37 UTC)

Forecast

The report was made 5 hours and 37 minutes ago, at 08:00 UTC
Forecast valid from 28 at 09 UTC to 29 at 09 UTC
Wind 8 kt from the Northwest
Visibility 10 km or more
no clouds below 1500 m and no cumulonimbus
Becoming
from 28 at 13 UTC to 28 at 15 UTC
Wind 15 kt from the West/Southwest with gusts up to 25 kt
Becoming
from 28 at 18 UTC to 28 at 20 UTC
Wind 6 kt from the West/Southwest
Becoming
from 28 at 21 UTC to 28 at 23 UTC
Wind 3 kt from variable directions

TAF: LFMY 280800Z 2809/2909 32008KT CAVOK BECMG 2813/2815 24015G25KT BECMG 2818/2820 24006KT BECMG 2821/2823 VRB03KT

Weather observations and forecasts of more than 4000 airports (METAR and TAF reports).

The available stations are represented by yellow and red dots on the map.

Hover mouse over dot to see the name of the station.

Then click to see weather observations and forecasts.

To change the map : click on the green buttons with a black cross to zoom in, on the green button with a dash to zoom out, or on the green arrows for adjacent maps.


METAR-TAF: